createdAt,value
2022-07-29T00:00:26.503Z,13.78
2022-07-29T00:05:40.644Z,13.67
2022-07-29T00:10:43.350Z,13.58
2022-07-29T00:15:45.793Z,13.56
2022-07-29T00:20:48.186Z,13.54
2022-07-29T00:25:50.717Z,13.52
2022-07-29T00:30:53.227Z,13.46
2022-07-29T00:35:55.832Z,13.38
2022-07-29T00:40:59.728Z,13.32
2022-07-29T00:46:02.695Z,13.26
2022-07-29T00:51:06.690Z,13.23
2022-07-29T00:56:09.107Z,13.17
2022-07-29T01:01:11.554Z,13.10
2022-07-29T01:06:15.580Z,13.06
2022-07-29T01:11:19.172Z,13.04
2022-07-29T01:16:38.173Z,13.04
2022-07-29T01:21:58.450Z,13.01
2022-07-29T01:27:32.702Z,12.92
2022-07-29T01:32:38.117Z,12.82
2022-07-29T01:37:46.268Z,12.73
2022-07-29T01:42:55.616Z,12.69
2022-07-29T01:48:13.888Z,12.66
2022-07-29T01:53:26.739Z,12.65
2022-07-29T01:58:32.292Z,12.63
2022-07-29T02:03:37.242Z,12.63
2022-07-29T02:08:41.564Z,12.64
2022-07-29T02:13:46.373Z,12.62
2022-07-29T02:18:51.489Z,12.57
2022-07-29T02:23:55.408Z,12.51
2022-07-29T02:29:01.234Z,12.48
2022-07-29T02:34:05.906Z,12.44
2022-07-29T02:39:10.798Z,12.36
2022-07-29T02:44:21.828Z,12.27
2022-07-29T02:49:30.011Z,12.21
2022-07-29T02:54:45.298Z,12.16
2022-07-29T02:59:52.666Z,12.09
2022-07-29T03:04:56.884Z,12.08
2022-07-29T03:10:02.010Z,12.12
2022-07-29T03:15:05.298Z,12.15
2022-07-29T03:20:09.290Z,12.18
2022-07-29T03:25:13.537Z,12.23
2022-07-29T03:30:21.753Z,12.34
2022-07-29T03:35:25.648Z,12.45
2022-07-29T03:40:50.590Z,12.56
2022-07-29T03:45:55.970Z,12.67
2022-07-29T03:50:58.443Z,12.78
2022-07-29T03:56:02.994Z,12.88
2022-07-29T04:01:06.166Z,12.94
2022-07-29T04:06:08.662Z,12.96
2022-07-29T04:11:11.196Z,13.12
2022-07-29T04:16:13.627Z,13.26
2022-07-29T04:21:16.236Z,13.39
2022-07-29T04:26:19.605Z,13.56
2022-07-29T04:31:25.729Z,13.70
2022-07-29T04:36:29.899Z,13.88
2022-07-29T04:41:33.690Z,14.03
2022-07-29T04:46:37.195Z,14.28
2022-07-29T04:51:40.053Z,14.50
2022-07-29T04:56:42.780Z,14.68
2022-07-29T05:01:45.206Z,14.90
2022-07-29T05:06:47.775Z,15.14
2022-07-29T05:11:50.181Z,15.38
2022-07-29T05:16:53.773Z,15.49
2022-07-29T05:21:56.178Z,15.58
2022-07-29T05:26:58.621Z,15.78
2022-07-29T05:32:01.041Z,16.02
2022-07-29T05:37:03.435Z,16.23
2022-07-29T05:42:10.673Z,16.46
2022-07-29T05:47:13.216Z,16.77
2022-07-29T05:52:16.071Z,17.07
2022-07-29T05:57:21.117Z,17.31
2022-07-29T06:02:23.556Z,17.48
2022-07-29T06:07:25.998Z,17.78
2022-07-29T06:12:28.492Z,18.11
2022-07-29T06:17:30.938Z,18.43
2022-07-29T06:22:33.336Z,18.85
2022-07-29T06:27:35.765Z,19.24
2022-07-29T06:32:42.923Z,19.43
2022-07-29T06:37:45.701Z,19.53
2022-07-29T06:42:51.235Z,19.77
2022-07-29T06:47:53.685Z,19.97
2022-07-29T06:52:56.135Z,20.15
2022-07-29T06:57:58.558Z,20.25
2022-07-29T07:03:00.926Z,20.37
2022-07-29T07:08:04.183Z,20.47
2022-07-29T07:13:06.866Z,20.61
2022-07-29T07:18:09.899Z,20.78
2022-07-29T07:23:12.382Z,20.87
2022-07-29T07:28:14.968Z,20.87
2022-07-29T07:33:17.507Z,20.84
2022-07-29T07:38:20.099Z,20.80
2022-07-29T07:43:23.437Z,20.98
2022-07-29T07:48:25.853Z,21.13
2022-07-29T07:53:30.616Z,21.25
2022-07-29T07:58:33.553Z,21.48
2022-07-29T08:03:36.252Z,21.62
2022-07-29T08:08:38.637Z,21.76
2022-07-29T08:13:41.072Z,21.95
2022-07-29T08:18:44.724Z,22.29
2022-07-29T08:23:57.646Z,22.64
2022-07-29T08:29:02.280Z,22.75
2022-07-29T08:34:05.610Z,22.96
2022-07-29T08:39:08.053Z,23.19
2022-07-29T08:44:10.637Z,23.28
2022-07-29T08:49:13.161Z,23.46
2022-07-29T08:54:19.272Z,23.48
2022-07-29T08:59:25.512Z,23.63
2022-07-29T09:04:34.149Z,23.69
2022-07-29T09:09:36.536Z,23.72
2022-07-29T09:14:39.951Z,23.87
2022-07-29T09:19:44.775Z,24.15
2022-07-29T09:24:48.475Z,24.39
2022-07-29T09:30:02.479Z,24.55
2022-07-29T09:35:23.242Z,24.91
2022-07-29T09:40:28.516Z,25.47
2022-07-29T09:45:32.190Z,25.83
2022-07-29T09:50:42.126Z,26.35
2022-07-29T09:55:52.545Z,26.67
2022-07-29T10:00:56.909Z,26.50
2022-07-29T10:06:15.172Z,25.86
2022-07-29T10:11:18.533Z,25.60
2022-07-29T10:16:20.996Z,25.68
2022-07-29T10:21:35.942Z,25.88
2022-07-29T10:26:41.799Z,26.11
2022-07-29T10:32:15.257Z,26.43
2022-07-29T10:37:35.406Z,26.43
2022-07-29T10:42:42.182Z,26.25
2022-07-29T10:47:45.944Z,26.41
2022-07-29T10:52:53.395Z,26.74
2022-07-29T10:58:21.786Z,26.91
2022-07-29T11:03:53.719Z,27.14
2022-07-29T11:09:20.192Z,27.59
2022-07-29T11:14:55.614Z,27.98
2022-07-29T11:20:30.863Z,28.45
2022-07-29T11:25:50.156Z,28.66
2022-07-29T11:30:55.963Z,28.43
2022-07-29T11:36:16.934Z,28.31
2022-07-29T11:41:26.076Z,28.02
2022-07-29T11:46:49.958Z,28.07
2022-07-29T11:51:54.299Z,28.40
2022-07-29T11:56:58.717Z,28.65
2022-07-29T12:02:33.318Z,28.74
2022-07-29T12:07:34.605Z,28.84
2022-07-29T12:12:39.552Z,28.43
2022-07-29T12:17:42.734Z,28.17
2022-07-29T12:22:45.306Z,28.14
2022-07-29T12:27:58.996Z,28.11
2022-07-29T12:33:02.680Z,28.40
2022-07-29T12:38:05.453Z,28.43
2022-07-29T12:43:13.997Z,28.63
2022-07-29T12:48:17.514Z,28.94
2022-07-29T12:53:20.128Z,29.34
2022-07-29T12:58:39.725Z,29.45
2022-07-29T13:04:00.716Z,29.35
2022-07-29T13:09:20.624Z,29.17
2022-07-29T13:14:48.922Z,28.88
2022-07-29T13:20:15.590Z,28.70
2022-07-29T13:25:34.206Z,28.57
2022-07-29T13:30:36.638Z,28.94
2022-07-29T13:35:48.372Z,29.24
2022-07-29T13:40:50.760Z,29.54
2022-07-29T13:45:53.288Z,29.70
2022-07-29T13:50:55.826Z,29.86
2022-07-29T13:55:58.298Z,30.10
2022-07-29T14:01:01.539Z,30.38
2022-07-29T14:06:03.871Z,30.50
2022-07-29T14:11:06.341Z,30.02
2022-07-29T14:16:09.008Z,29.26
2022-07-29T14:21:11.426Z,28.54
2022-07-29T14:26:15.858Z,28.24
2022-07-29T14:31:22.887Z,28.50
2022-07-29T14:36:25.439Z,29.59
2022-07-29T14:41:29.156Z,30.87
2022-07-29T14:46:31.803Z,32.40
2022-07-29T14:51:34.451Z,33.71
2022-07-29T14:56:37.715Z,34.60
2022-07-29T15:01:48.782Z,34.26
2022-07-29T15:06:52.690Z,34.03
2022-07-29T15:11:55.387Z,35.02
2022-07-29T15:16:58.179Z,35.92
2022-07-29T15:22:01.632Z,36.24
2022-07-29T15:27:04.324Z,35.40
2022-07-29T15:32:07.010Z,33.91
2022-07-29T15:37:11.640Z,32.99
2022-07-29T15:42:14.072Z,33.35
2022-07-29T15:47:20.246Z,34.90
2022-07-29T15:52:25.630Z,36.21
2022-07-29T15:57:28.710Z,36.80
2022-07-29T16:02:31.587Z,37.10
2022-07-29T16:07:34.155Z,36.71
2022-07-29T16:12:37.162Z,36.65
2022-07-29T16:17:39.568Z,37.22
2022-07-29T16:22:43.146Z,37.96
2022-07-29T16:27:45.511Z,38.47
2022-07-29T16:32:47.945Z,36.97
2022-07-29T16:37:50.278Z,33.52
2022-07-29T16:42:52.687Z,31.21
2022-07-29T16:48:00.121Z,29.36
2022-07-29T16:53:03.407Z,27.88
2022-07-29T16:58:05.891Z,26.68
2022-07-29T17:03:08.331Z,25.99
2022-07-29T17:08:10.741Z,25.47
2022-07-29T17:13:13.189Z,25.08
2022-07-29T17:18:15.609Z,24.90
2022-07-29T17:23:18.039Z,24.59
2022-07-29T17:28:20.433Z,24.17
2022-07-29T17:33:22.862Z,23.78
2022-07-29T17:38:25.377Z,23.39
2022-07-29T17:43:27.994Z,23.09
2022-07-29T17:48:30.563Z,22.81
2022-07-29T17:53:33.150Z,22.59
2022-07-29T17:58:36.222Z,22.42
2022-07-29T18:03:38.653Z,22.21
2022-07-29T18:08:41.378Z,22.03
2022-07-29T18:13:43.814Z,21.82
2022-07-29T18:18:46.427Z,21.59
2022-07-29T18:23:50.594Z,21.37
2022-07-29T18:28:53.030Z,21.12
2022-07-29T18:33:59.874Z,20.86
2022-07-29T18:39:02.703Z,20.63
2022-07-29T18:44:05.233Z,20.39
2022-07-29T18:49:08.104Z,20.18
2022-07-29T18:54:10.592Z,19.94
2022-07-29T18:59:16.836Z,19.68
2022-07-29T19:04:19.275Z,19.45
2022-07-29T19:09:21.855Z,19.20
2022-07-29T19:14:24.277Z,18.96
2022-07-29T19:19:26.930Z,18.73
2022-07-29T19:24:29.364Z,18.48
2022-07-29T19:29:32.764Z,18.26
2022-07-29T19:34:35.577Z,18.03
2022-07-29T19:39:37.977Z,17.85
2022-07-29T19:44:40.421Z,17.71
2022-07-29T19:49:42.860Z,17.58
2022-07-29T19:54:45.324Z,17.46
2022-07-29T19:59:48.201Z,17.32
2022-07-29T20:04:52.089Z,17.19
2022-07-29T20:09:55.073Z,17.09
2022-07-29T20:14:58.071Z,17.01
2022-07-29T20:20:01.098Z,16.92
2022-07-29T20:25:05.496Z,16.80
2022-07-29T20:30:08.954Z,16.67
2022-07-29T20:35:13.793Z,16.54
2022-07-29T20:40:16.789Z,16.40
2022-07-29T20:45:20.027Z,16.29
2022-07-29T20:50:24.042Z,16.22
2022-07-29T20:55:26.923Z,16.15
2022-07-29T21:00:29.707Z,16.07
2022-07-29T21:05:32.689Z,15.97
2022-07-29T21:10:35.108Z,15.85
2022-07-29T21:15:38.064Z,15.74
2022-07-29T21:20:40.665Z,15.66
2022-07-29T21:25:43.293Z,15.60
2022-07-29T21:30:45.816Z,15.56
2022-07-29T21:36:26.615Z,15.47
2022-07-29T21:42:15.188Z,15.36
2022-07-29T21:47:17.623Z,15.26
2022-07-29T21:52:20.341Z,15.18
2022-07-29T21:57:23.519Z,15.10
2022-07-29T22:02:26.019Z,15.00
2022-07-29T22:07:55.442Z,14.92
2022-07-29T22:12:52.480Z,14.86
2022-07-29T22:17:55.574Z,14.78
2022-07-29T22:22:58.183Z,14.70
2022-07-29T22:28:00.598Z,14.60
2022-07-29T22:33:03.076Z,14.52
2022-07-29T22:38:05.443Z,14.47
2022-07-29T22:43:08.090Z,14.40
2022-07-29T22:48:10.588Z,14.30
2022-07-29T22:53:13.863Z,14.18
2022-07-29T22:58:16.226Z,14.07
2022-07-29T23:03:18.769Z,14.02
2022-07-29T23:08:21.257Z,13.97
2022-07-29T23:13:23.710Z,13.93
2022-07-29T23:18:26.143Z,13.84
2022-07-29T23:23:32.345Z,13.78
2022-07-29T23:28:35.084Z,13.73
2022-07-29T23:33:37.481Z,13.71
2022-07-29T23:38:40.892Z,13.67
2022-07-29T23:43:43.494Z,13.60
2022-07-29T23:48:46.268Z,13.54
2022-07-29T23:53:53.049Z,13.51
2022-07-29T23:58:56.515Z,13.50
